createdAt,value
2022-09-22T00:01:09.232Z,100314.00
2022-09-22T00:03:39.569Z,100309.72
2022-09-22T00:06:15.229Z,100310.16
2022-09-22T00:08:44.395Z,100310.59
2022-09-22T00:11:17.191Z,100308.94
2022-09-22T00:13:46.696Z,100308.69
2022-09-22T00:16:14.408Z,100308.72
2022-09-22T00:18:41.873Z,100297.13
2022-09-22T00:21:12.615Z,100300.63
2022-09-22T00:23:40.266Z,100302.88
2022-09-22T00:26:10.634Z,100299.78
2022-09-22T00:28:38.833Z,100302.94
2022-09-22T00:31:07.413Z,100301.47
2022-09-22T00:33:34.923Z,100294.81
2022-09-22T00:36:03.044Z,100292.19
2022-09-22T00:38:30.761Z,100287.84
2022-09-22T00:41:00.887Z,100277.66
2022-09-22T00:43:30.353Z,100290.50
2022-09-22T00:46:09.566Z,100288.69
2022-09-22T00:48:39.554Z,100282.72
2022-09-22T00:51:07.929Z,100280.75
2022-09-22T00:53:35.327Z,100273.75
2022-09-22T00:56:07.486Z,100270.66
2022-09-22T00:58:38.178Z,100274.78
2022-09-22T01:01:09.418Z,100273.66
2022-09-22T01:03:39.155Z,100272.22
2022-09-22T01:06:07.796Z,100276.12
2022-09-22T01:08:35.274Z,100277.69
2022-09-22T01:11:02.632Z,100282.78
2022-09-22T01:14:00.545Z,100270.78
2022-09-22T01:16:45.920Z,100259.31
2022-09-22T01:19:35.260Z,100266.03
2022-09-22T01:22:32.555Z,100260.34
2022-09-22T01:25:05.960Z,100260.66
2022-09-22T01:27:58.046Z,100264.34
2022-09-22T01:30:29.757Z,100256.72
2022-09-22T01:33:09.159Z,100253.25
2022-09-22T01:35:45.812Z,100251.91
2022-09-22T01:38:37.715Z,100262.06
2022-09-22T01:41:15.146Z,100263.38
2022-09-22T01:43:50.954Z,100261.91
2022-09-22T01:46:22.810Z,100262.44
2022-09-22T01:48:50.217Z,100264.81
2022-09-22T01:51:53.933Z,100266.88
2022-09-22T01:54:25.059Z,100264.37
2022-09-22T01:56:56.832Z,100280.69
2022-09-22T01:59:26.156Z,100283.84
2022-09-22T02:02:05.842Z,100276.78
2022-09-22T02:05:00.597Z,100271.81
2022-09-22T02:07:33.917Z,100273.12
2022-09-22T02:10:04.470Z,100266.63
2022-09-22T02:12:31.797Z,100269.72
2022-09-22T02:14:59.148Z,100267.87
2022-09-22T02:17:30.590Z,100270.13
2022-09-22T02:20:00.374Z,100268.03
2022-09-22T02:22:27.951Z,100268.56
2022-09-22T02:24:55.340Z,100277.63
2022-09-22T02:27:27.566Z,100264.22
2022-09-22T02:30:08.187Z,100268.34
2022-09-22T02:32:36.198Z,100259.91
2022-09-22T02:35:03.950Z,100265.13
2022-09-22T02:37:50.906Z,100263.09
2022-09-22T02:40:28.642Z,100265.53
2022-09-22T02:43:01.993Z,100261.44
2022-09-22T02:45:32.317Z,100267.00
2022-09-22T02:48:03.002Z,100264.84
2022-09-22T02:50:30.615Z,100264.56
2022-09-22T02:53:01.861Z,100268.16
2022-09-22T02:55:29.236Z,100272.84
2022-09-22T02:57:56.872Z,100264.66
2022-09-22T03:00:24.197Z,100256.06
2022-09-22T03:02:51.556Z,100263.56
2022-09-22T03:05:19.162Z,100255.78
2022-09-22T03:07:46.488Z,100259.31
2022-09-22T03:10:13.995Z,100251.88
2022-09-22T03:13:02.361Z,100256.31
2022-09-22T03:15:30.087Z,100249.69
2022-09-22T03:17:57.716Z,100244.84
2022-09-22T03:20:25.272Z,100245.78
2022-09-22T03:22:52.668Z,100255.03
2022-09-22T03:25:20.274Z,100257.81
2022-09-22T03:27:48.192Z,100270.34
2022-09-22T03:30:15.565Z,100267.13
2022-09-22T03:32:43.144Z,100271.84
2022-09-22T03:35:10.512Z,100272.16
2022-09-22T03:37:37.869Z,100268.59
2022-09-22T03:40:05.899Z,100268.72
2022-09-22T03:42:34.936Z,100267.25
2022-09-22T03:45:04.247Z,100262.88
2022-09-22T03:47:31.975Z,100262.97
2022-09-22T03:49:59.298Z,100255.31
2022-09-22T03:52:27.355Z,100251.78
2022-09-22T03:54:54.990Z,100264.97
2022-09-22T03:57:22.328Z,100265.34
2022-09-22T03:59:49.874Z,100261.00
2022-09-22T04:02:17.791Z,100260.25
2022-09-22T04:04:45.632Z,100257.00
2022-09-22T04:07:12.957Z,100256.56
2022-09-22T04:09:41.961Z,100252.78
2022-09-22T04:12:09.849Z,100253.47
2022-09-22T04:14:37.186Z,100248.41
2022-09-22T04:17:05.242Z,100247.00
2022-09-22T04:19:35.668Z,100246.06
2022-09-22T04:22:03.525Z,100245.81
2022-09-22T04:24:30.898Z,100242.88
2022-09-22T04:29:45.829Z,100256.31
2022-09-22T04:32:14.524Z,100261.94
2022-09-22T04:34:42.934Z,100254.09
2022-09-22T04:37:10.900Z,100254.69
2022-09-22T04:39:38.614Z,100252.88
2022-09-22T04:42:06.155Z,100271.00
2022-09-22T04:44:35.433Z,100276.72
2022-09-22T04:47:03.959Z,100274.28
2022-09-22T04:49:31.351Z,100268.59
2022-09-22T04:51:59.052Z,100272.84
2022-09-22T04:54:26.643Z,100272.69
2022-09-22T04:56:53.985Z,100269.69
2022-09-22T04:59:21.345Z,100268.63
2022-09-22T05:01:48.981Z,100265.88
2022-09-22T05:04:16.744Z,100262.03
2022-09-22T05:06:44.059Z,100257.13
2022-09-22T05:09:11.679Z,100253.34
2022-09-22T05:11:39.579Z,100271.84
2022-09-22T05:14:06.913Z,100248.09
2022-09-22T05:16:35.281Z,100254.41
2022-09-22T05:19:02.731Z,100258.44
2022-09-22T05:21:30.052Z,100254.00
2022-09-22T05:23:57.706Z,100259.91
2022-09-22T05:26:25.860Z,100265.34
2022-09-22T05:28:53.364Z,100256.03
2022-09-22T05:31:21.022Z,100252.28
2022-09-22T05:33:48.373Z,100258.63
2022-09-22T05:36:15.885Z,100254.66
2022-09-22T05:38:43.484Z,100264.09
2022-09-22T05:41:10.910Z,100259.44
2022-09-22T05:43:38.306Z,100257.50
2022-09-22T05:46:05.998Z,100264.81
2022-09-22T05:48:33.438Z,100261.34
2022-09-22T05:51:01.277Z,100261.31
2022-09-22T05:53:28.933Z,100262.03
2022-09-22T05:55:57.078Z,100265.19
2022-09-22T05:58:24.448Z,100266.16
2022-09-22T06:00:52.070Z,100260.84
2022-09-22T06:03:19.709Z,100265.06
2022-09-22T06:05:47.053Z,100264.16
2022-09-22T06:08:14.456Z,100262.56
2022-09-22T06:10:42.256Z,100258.06
2022-09-22T06:13:10.142Z,100262.19
2022-09-22T06:15:38.379Z,100268.56
2022-09-22T06:18:07.579Z,100267.69
2022-09-22T06:20:41.043Z,100271.47
2022-09-22T06:23:09.031Z,100268.88
2022-09-22T06:25:36.386Z,100274.81
2022-09-22T06:28:07.282Z,100271.37
2022-09-22T06:30:35.694Z,100270.22
2022-09-22T06:33:03.458Z,100283.50
2022-09-22T06:35:35.390Z,100272.66
2022-09-22T06:38:03.620Z,100279.38
2022-09-22T06:40:32.336Z,100266.81
2022-09-22T06:43:00.286Z,100276.03
2022-09-22T06:45:27.997Z,100277.72
2022-09-22T06:47:58.954Z,100275.56
2022-09-22T06:50:31.088Z,100268.84
2022-09-22T06:53:02.581Z,100270.56
2022-09-22T06:55:30.198Z,100269.66
2022-09-22T06:57:59.007Z,100264.44
2022-09-22T07:00:31.296Z,100281.34
2022-09-22T07:03:25.502Z,100279.03
2022-09-22T07:06:02.588Z,100274.13
2022-09-22T07:08:30.868Z,100283.19
2022-09-22T07:11:02.110Z,100272.19
2022-09-22T07:13:30.173Z,100282.03
2022-09-22T07:16:01.479Z,100273.78
2022-09-22T07:18:29.996Z,100267.22
2022-09-22T07:21:05.744Z,100267.22
2022-09-22T07:23:35.645Z,100269.94
2022-09-22T07:26:07.338Z,100274.97
2022-09-22T07:28:35.251Z,100271.59
2022-09-22T07:31:11.318Z,100264.09
2022-09-22T07:33:39.689Z,100264.06
2022-09-22T07:36:15.381Z,100265.22
2022-09-22T07:38:43.259Z,100265.62
2022-09-22T07:41:12.469Z,100273.09
2022-09-22T07:43:40.301Z,100268.06
2022-09-22T07:46:07.884Z,100272.75
2022-09-22T07:48:36.355Z,100273.38
2022-09-22T07:51:16.359Z,100276.97
2022-09-22T07:53:45.773Z,100281.06
2022-09-22T07:56:15.170Z,100282.00
2022-09-22T07:58:47.640Z,100279.00
2022-09-22T08:01:15.286Z,100279.97
2022-09-22T08:03:42.983Z,100286.03
2022-09-22T08:06:11.230Z,100278.13
2022-09-22T08:08:42.251Z,100278.22
2022-09-22T08:11:13.279Z,100277.41
2022-09-22T08:13:43.730Z,100280.16
2022-09-22T08:16:11.819Z,100277.66
2022-09-22T08:18:41.995Z,100289.59
2022-09-22T08:21:09.368Z,100284.56
2022-09-22T08:23:37.577Z,100283.97
2022-09-22T08:26:06.329Z,100288.06
2022-09-22T08:28:33.700Z,100286.75
2022-09-22T08:31:01.573Z,100291.47
2022-09-22T08:33:32.265Z,100291.09
2022-09-22T08:36:03.742Z,100281.94
2022-09-22T08:38:31.449Z,100275.09
2022-09-22T08:41:04.705Z,100288.03
2022-09-22T08:43:32.394Z,100283.31
2022-09-22T08:46:01.321Z,100284.69
2022-09-22T08:48:47.398Z,100278.34
2022-09-22T08:51:41.273Z,100275.16
2022-09-22T08:54:08.723Z,100259.62
2022-09-22T08:56:40.990Z,100263.38
2022-09-22T08:59:11.347Z,100256.53
2022-09-22T09:01:42.730Z,100254.75
2022-09-22T09:04:28.747Z,100260.69
2022-09-22T09:06:58.180Z,100245.38
2022-09-22T09:10:00.469Z,100266.38
2022-09-22T09:12:34.911Z,100257.53
2022-09-22T09:15:29.392Z,100263.28
2022-09-22T09:17:59.393Z,100253.28
2022-09-22T09:20:39.225Z,100258.47
2022-09-22T09:23:14.377Z,100248.28
2022-09-22T09:25:42.254Z,100246.63
2022-09-22T09:28:18.940Z,100256.78
2022-09-22T09:30:51.262Z,100246.03
2022-09-22T09:33:31.468Z,100246.16
2022-09-22T09:35:58.823Z,100246.72
2022-09-22T09:38:35.494Z,100251.84
2022-09-22T09:41:15.312Z,100242.66
2022-09-22T09:43:44.910Z,100246.56
2022-09-22T09:46:30.525Z,100242.03
2022-09-22T09:49:12.457Z,100247.41
2022-09-22T09:51:40.519Z,100237.37
2022-09-22T09:54:13.097Z,100239.53
2022-09-22T09:57:12.790Z,100247.37
2022-09-22T10:00:06.247Z,100241.16
2022-09-22T10:02:50.933Z,100229.78
2022-09-22T10:05:18.390Z,100232.84
2022-09-22T10:07:57.466Z,100234.34
2022-09-22T10:10:35.709Z,100233.84
2022-09-22T10:13:05.933Z,100222.28
2022-09-22T10:15:35.122Z,100230.53
2022-09-22T10:18:02.815Z,100229.53
2022-09-22T10:20:31.651Z,100238.69
2022-09-22T10:23:20.275Z,100250.91
2022-09-22T10:25:48.335Z,100244.88
2022-09-22T10:28:17.565Z,100248.97
2022-09-22T10:30:46.433Z,100241.13
2022-09-22T10:33:14.885Z,100242.44
2022-09-22T10:35:46.225Z,100246.97
2022-09-22T10:38:21.151Z,100235.41
2022-09-22T10:41:19.436Z,100228.72
2022-09-22T10:44:00.329Z,100220.34
2022-09-22T10:46:59.956Z,100220.00
2022-09-22T10:49:31.220Z,100228.31
2022-09-22T10:52:21.921Z,100218.03
2022-09-22T10:55:16.866Z,100232.03
2022-09-22T10:58:00.055Z,100215.31
2022-09-22T11:00:27.498Z,100222.53
2022-09-22T11:03:10.392Z,100217.56
2022-09-22T11:06:05.792Z,100221.75
2022-09-22T11:09:24.979Z,100205.88
2022-09-22T11:12:17.016Z,100190.38
2022-09-22T11:14:56.954Z,100201.06
2022-09-22T11:18:07.073Z,100195.06
2022-09-22T11:20:36.772Z,100201.44
2022-09-22T11:23:26.029Z,100200.84
2022-09-22T11:26:33.907Z,100196.72
2022-09-22T11:29:37.486Z,100189.28
2022-09-22T11:32:29.364Z,100187.81
2022-09-22T11:35:21.463Z,100174.47
2022-09-22T11:38:13.784Z,100168.16
2022-09-22T11:41:18.628Z,100174.50
2022-09-22T11:44:11.660Z,100158.34
2022-09-22T11:47:01.064Z,100153.81
2022-09-22T11:49:43.604Z,100145.16
2022-09-22T11:52:32.362Z,100149.31
2022-09-22T11:55:05.957Z,100141.94
2022-09-22T11:57:36.143Z,100141.97
2022-09-22T12:00:19.025Z,100136.38
2022-09-22T12:03:02.122Z,100146.00
2022-09-22T12:05:53.557Z,100132.97
2022-09-22T12:08:23.104Z,100131.75
2022-09-22T12:10:51.396Z,100131.81
2022-09-22T12:13:20.433Z,100128.56
2022-09-22T12:16:08.733Z,100136.72
2022-09-22T12:19:02.869Z,100143.56
2022-09-22T12:21:48.807Z,100130.75
2022-09-22T12:24:16.179Z,100132.03
2022-09-22T12:26:45.343Z,100142.78
2022-09-22T12:29:16.282Z,100135.59
2022-09-22T12:31:45.447Z,100137.34
2022-09-22T12:34:27.077Z,100136.50
2022-09-22T12:36:57.120Z,100140.66
2022-09-22T12:39:25.931Z,100142.19
2022-09-22T12:42:01.624Z,100139.03
2022-09-22T12:44:36.901Z,100132.28
2022-09-22T12:47:08.280Z,100135.97
2022-09-22T12:49:37.452Z,100130.38
2022-09-22T12:52:04.798Z,100137.34
2022-09-22T12:54:36.788Z,100134.44
2022-09-22T12:59:39.046Z,100125.19
2022-09-22T13:02:15.995Z,100122.31
2022-09-22T13:04:49.675Z,100118.63
2022-09-22T13:07:36.057Z,100118.87
2022-09-22T13:10:21.491Z,100118.63
2022-09-22T13:13:19.921Z,100113.28
2022-09-22T13:15:47.221Z,100111.91
2022-09-22T13:18:37.005Z,100115.53
2022-09-22T13:21:13.453Z,100113.50
2022-09-22T13:23:58.799Z,100117.12
2022-09-22T13:26:39.133Z,100118.97
2022-09-22T13:29:15.393Z,100116.78
2022-09-22T13:31:46.151Z,100114.53
2022-09-22T13:34:35.301Z,100110.16
2022-09-22T13:37:12.395Z,100117.12
2022-09-22T13:39:46.889Z,100108.00
2022-09-22T13:42:23.406Z,100107.19
2022-09-22T13:45:04.322Z,100106.91
2022-09-22T13:47:31.944Z,100098.25
2022-09-22T13:50:12.857Z,100096.69
2022-09-22T13:52:40.244Z,100100.09
2022-09-22T13:55:28.222Z,100100.03
2022-09-22T13:57:56.261Z,100094.59
2022-09-22T14:00:26.525Z,100097.94
2022-09-22T14:02:57.749Z,100099.94
2022-09-22T14:05:27.635Z,100093.47
2022-09-22T14:08:11.173Z,100088.44
2022-09-22T14:10:40.558Z,100082.16
2022-09-22T14:13:39.677Z,100076.41
2022-09-22T14:16:29.674Z,100078.94
2022-09-22T14:19:18.040Z,100080.66
2022-09-22T14:21:55.745Z,100077.97
2022-09-22T14:24:23.405Z,100080.91
2022-09-22T14:27:03.015Z,100083.47
2022-09-22T14:29:35.789Z,100083.75
2022-09-22T14:32:39.789Z,100080.63
2022-09-22T14:35:25.969Z,100081.41
2022-09-22T14:37:53.403Z,100087.34
2022-09-22T14:40:22.644Z,100078.91
2022-09-22T14:43:08.882Z,100080.44
2022-09-22T14:45:36.959Z,100074.91
2022-09-22T14:48:16.821Z,100083.97
2022-09-22T14:51:05.398Z,100078.81
2022-09-22T14:53:37.722Z,100076.16
2022-09-22T14:56:13.229Z,100071.41
2022-09-22T14:58:41.434Z,100080.69
2022-09-22T15:01:40.484Z,100069.09
2022-09-22T15:04:17.630Z,100061.81
2022-09-22T15:06:46.297Z,100063.84
2022-09-22T15:09:35.857Z,100064.59
2022-09-22T15:12:03.726Z,100073.63
2022-09-22T15:14:44.287Z,100069.03
2022-09-22T15:17:59.507Z,100067.31
2022-09-22T15:20:38.684Z,100088.31
2022-09-22T15:23:15.860Z,100120.75
2022-09-22T15:25:43.512Z,100123.31
2022-09-22T15:28:16.664Z,100125.94
2022-09-22T15:30:44.797Z,100125.28
2022-09-22T15:33:15.539Z,100122.59
2022-09-22T15:35:44.740Z,100123.62
2022-09-22T15:38:17.784Z,100128.28
2022-09-22T15:40:46.712Z,100125.94
2022-09-22T15:43:20.654Z,100116.00
2022-09-22T15:46:09.198Z,100121.75
2022-09-22T15:48:38.305Z,100109.28
2022-09-22T15:51:07.715Z,100109.38
2022-09-22T15:53:35.188Z,100112.94
2022-09-22T15:56:05.164Z,100114.28
2022-09-22T15:58:34.942Z,100113.12
2022-09-22T16:01:02.904Z,100117.50
2022-09-22T16:03:31.404Z,100116.75
2022-09-22T16:05:59.964Z,100123.22
2022-09-22T16:08:29.624Z,100117.31
2022-09-22T16:10:58.412Z,100116.22
2022-09-22T16:13:26.899Z,100121.69
2022-09-22T16:15:54.924Z,100114.87
2022-09-22T16:18:22.585Z,100119.88
2022-09-22T16:20:51.756Z,100117.81
2022-09-22T16:23:19.665Z,100130.44
2022-09-22T16:25:52.342Z,100127.63
2022-09-22T16:28:20.064Z,100125.63
2022-09-22T16:30:47.962Z,100127.75
2022-09-22T16:33:15.647Z,100129.06
2022-09-22T16:35:43.249Z,100135.81
2022-09-22T16:38:11.681Z,100136.59
2022-09-22T16:40:39.077Z,100133.91
2022-09-22T16:43:08.805Z,100135.41
2022-09-22T16:45:56.448Z,100132.59
2022-09-22T16:48:23.807Z,100133.41
2022-09-22T16:50:53.827Z,100137.06
2022-09-22T16:53:22.759Z,100130.72
2022-09-22T16:55:50.093Z,100135.19
2022-09-22T16:58:17.717Z,100140.91
2022-09-22T17:00:45.135Z,100138.59
2022-09-22T17:03:12.602Z,100155.06
2022-09-22T17:05:41.144Z,100149.31
2022-09-22T17:08:08.904Z,100151.63
2022-09-22T17:10:36.265Z,100154.69
2022-09-22T17:13:08.418Z,100157.66
2022-09-22T17:15:36.085Z,100163.47
2022-09-22T17:18:04.158Z,100159.81
2022-09-22T17:20:32.522Z,100171.44
2022-09-22T17:22:59.873Z,100160.62
2022-09-22T17:25:29.093Z,100173.72
2022-09-22T17:27:56.809Z,100167.00
2022-09-22T17:30:24.973Z,100171.72
2022-09-22T17:32:53.010Z,100173.56
2022-09-22T17:35:21.814Z,100171.06
2022-09-22T17:37:49.161Z,100171.06
2022-09-22T17:40:16.911Z,100186.19
2022-09-22T17:42:44.325Z,100186.37
2022-09-22T17:45:11.754Z,100188.03
2022-09-22T17:47:58.499Z,100190.78
2022-09-22T17:50:44.506Z,100198.25
2022-09-22T17:53:30.378Z,100192.16
2022-09-22T17:56:01.862Z,100197.44
2022-09-22T17:58:30.393Z,100199.00
2022-09-22T18:00:58.016Z,100194.69
2022-09-22T18:03:25.669Z,100194.09
2022-09-22T18:05:54.245Z,100201.59
2022-09-22T18:08:22.151Z,100204.34
2022-09-22T18:10:49.941Z,100204.62
2022-09-22T18:13:18.300Z,100199.47
2022-09-22T18:15:45.826Z,100200.47
2022-09-22T18:18:13.520Z,100209.03
2022-09-22T18:20:40.902Z,100213.37
2022-09-22T18:23:08.246Z,100218.34
2022-09-22T18:25:36.923Z,100222.03
2022-09-22T18:28:07.755Z,100219.66
2022-09-22T18:30:35.093Z,100222.38
2022-09-22T18:33:02.677Z,100224.38
2022-09-22T18:35:32.238Z,100223.69
2022-09-22T18:37:59.603Z,100226.03
2022-09-22T18:40:30.092Z,100219.44
2022-09-22T18:42:57.731Z,100228.50
2022-09-22T18:45:25.195Z,100229.00
2022-09-22T18:47:52.801Z,100229.91
2022-09-22T18:50:20.421Z,100229.34
2022-09-22T18:52:47.913Z,100233.94
2022-09-22T18:55:18.273Z,100231.47
2022-09-22T18:57:47.796Z,100233.22
2022-09-22T19:00:15.774Z,100228.09
2022-09-22T19:02:43.521Z,100226.13
2022-09-22T19:05:10.929Z,100228.81
2022-09-22T19:07:42.107Z,100221.03
2022-09-22T19:10:15.512Z,100228.28
2022-09-22T19:12:43.060Z,100228.78
2022-09-22T19:15:16.417Z,100223.81
2022-09-22T19:17:44.918Z,100221.50
2022-09-22T19:20:14.561Z,100225.53
2022-09-22T19:22:44.970Z,100229.75
2022-09-22T19:25:12.734Z,100218.06
2022-09-22T19:27:40.261Z,100217.84
2022-09-22T19:30:11.546Z,100225.84
2022-09-22T19:32:39.398Z,100217.81
2022-09-22T19:35:07.051Z,100220.00
2022-09-22T19:37:34.409Z,100217.94
2022-09-22T19:40:02.472Z,100218.38
2022-09-22T19:42:29.838Z,100220.34
2022-09-22T19:44:57.202Z,100218.25
2022-09-22T19:47:24.793Z,100215.78
2022-09-22T19:49:52.267Z,100211.97
2022-09-22T19:52:21.027Z,100217.72
2022-09-22T19:54:48.644Z,100217.22
2022-09-22T19:57:16.400Z,100213.63
2022-09-22T19:59:44.907Z,100216.69
2022-09-22T20:02:13.427Z,100228.13
2022-09-22T20:04:41.164Z,100232.69
2022-09-22T20:07:10.722Z,100231.62
2022-09-22T20:09:38.145Z,100232.19
2022-09-22T20:12:05.767Z,100229.22
2022-09-22T20:14:33.132Z,100232.56
2022-09-22T20:17:08.034Z,100236.94
2022-09-22T20:19:38.376Z,100238.09
2022-09-22T20:22:25.464Z,100231.41
2022-09-22T20:25:02.353Z,100238.06
2022-09-22T20:27:31.591Z,100251.91
2022-09-22T20:29:59.489Z,100242.28
2022-09-22T20:32:28.021Z,100242.88
2022-09-22T20:34:58.494Z,100237.56
2022-09-22T20:37:26.139Z,100242.12
2022-09-22T20:39:53.484Z,100244.66
2022-09-22T20:42:20.897Z,100241.75
2022-09-22T20:44:49.199Z,100240.50
2022-09-22T20:47:18.356Z,100249.22
2022-09-22T20:49:50.622Z,100242.59
2022-09-22T20:52:20.117Z,100243.97
2022-09-22T20:54:47.990Z,100237.59
2022-09-22T20:57:15.461Z,100248.59
2022-09-22T20:59:45.575Z,100247.19
2022-09-22T21:02:14.033Z,100245.72
2022-09-22T21:04:41.581Z,100241.22
2022-09-22T21:07:09.436Z,100244.50
2022-09-22T21:09:55.719Z,100240.50
2022-09-22T21:12:28.751Z,100245.91
2022-09-22T21:14:58.506Z,100234.84
2022-09-22T21:17:27.781Z,100245.03
2022-09-22T21:19:57.746Z,100233.03
2022-09-22T21:22:27.306Z,100242.94
2022-09-22T21:24:55.248Z,100238.31
2022-09-22T21:27:22.769Z,100235.88
2022-09-22T21:29:50.124Z,100244.72
2022-09-22T21:32:19.930Z,100241.53
2022-09-22T21:34:47.366Z,100248.53
2022-09-22T21:37:14.753Z,100246.03
2022-09-22T21:39:42.401Z,100240.84
2022-09-22T21:42:09.712Z,100237.84
2022-09-22T21:44:37.054Z,100244.06
2022-09-22T21:47:04.882Z,100239.94
2022-09-22T21:49:32.938Z,100239.75
2022-09-22T21:52:01.163Z,100232.31
2022-09-22T21:54:28.777Z,100235.34
2022-09-22T21:56:57.302Z,100234.75
2022-09-22T21:59:24.677Z,100232.75
2022-09-22T22:01:52.334Z,100234.75
2022-09-22T22:04:20.042Z,100241.22
2022-09-22T22:06:47.472Z,100242.50
2022-09-22T22:09:19.347Z,100235.84
2022-09-22T22:11:55.510Z,100232.00
2022-09-22T22:14:23.858Z,100228.13
2022-09-22T22:16:52.772Z,100238.19
2022-09-22T22:19:21.432Z,100230.37
2022-09-22T22:21:50.351Z,100236.81
2022-09-22T22:24:23.173Z,100232.56
2022-09-22T22:27:10.204Z,100238.94
2022-09-22T22:29:41.091Z,100234.88
2022-09-22T22:32:09.458Z,100239.59
2022-09-22T22:34:36.981Z,100230.25
2022-09-22T22:37:07.123Z,100225.75
2022-09-22T22:39:34.502Z,100223.94
2022-09-22T22:42:01.852Z,100235.09
2022-09-22T22:44:29.534Z,100228.78
2022-09-22T22:46:56.888Z,100216.97
2022-09-22T22:49:24.268Z,100218.28
2022-09-22T22:51:52.465Z,100225.47
2022-09-22T22:54:19.869Z,100223.91
2022-09-22T22:56:51.042Z,100222.63
2022-09-22T22:59:19.203Z,100219.78
2022-09-22T23:01:46.616Z,100222.97
2022-09-22T23:04:14.027Z,100216.97
2022-09-22T23:06:44.028Z,100224.31
2022-09-22T23:09:14.071Z,100217.31
2022-09-22T23:11:42.147Z,100211.31
2022-09-22T23:14:11.479Z,100211.47
2022-09-22T23:16:40.439Z,100216.47
2022-09-22T23:19:08.716Z,100213.66
2022-09-22T23:21:36.214Z,100218.62
2022-09-22T23:24:04.322Z,100214.00
2022-09-22T23:26:32.138Z,100217.31
2022-09-22T23:28:59.682Z,100216.81
2022-09-22T23:31:27.752Z,100217.47
2022-09-22T23:33:55.349Z,100216.97
2022-09-22T23:36:24.271Z,100213.63
2022-09-22T23:38:55.419Z,100211.31
2022-09-22T23:41:23.005Z,100208.44
2022-09-22T23:43:50.490Z,100209.31
2022-09-22T23:46:17.954Z,100200.59
2022-09-22T23:48:47.396Z,100215.59
2022-09-22T23:51:14.817Z,100210.97
2022-09-22T23:53:42.190Z,100218.81
2022-09-22T23:56:09.778Z,100222.69
2022-09-22T23:58:38.189Z,100205.66
